CheckWX is a tool to help pilots better visualize weather data.  It is not intended as a substitute for an official pre-flight weather briefing.

21:04:44 UTC

KHFF METAR
Mackall AAF Airport
Camp Mackall, North Carolina, USA
Current

46 mins ago

KHFF 232019Z AUTO 01006KT 8SM RA OVC005 06/06 A3018 RMK AO2 SLP238
Observed
Feb-23 @ 20:19 UTC
Wind
  • 010° at 6 KTS
Visibility
8 SM
Flight Rules
IFR
Conditions
Rain
Cloud Levels
  • Overcast at 500' AGL
Temperature
C / 43°F
Dewpoint
C / 43°F
Humidity
100%
Altimeter
30.18" Hg
Pressure
1023.8 hPa
Previous

1 hour ago

KHFF 231956Z AUTO 02005KT 3SM -RA BR OVC004 06/06 A3019 RMK AO2 SHRAE40RAB40 SLP241 P0001 T00620060
Observed
Feb-23 @ 19:56 UTC
Wind
  • 020° at 5 KTS
Visibility
3 SM
Flight Rules
LIFR
Conditions
Light Rain, Mist
Cloud Levels
  • Overcast at 400' AGL
Temperature
C / 43°F
Dewpoint
C / 43°F
Humidity
100%
Altimeter
30.19" Hg
Pressure
1024.1 hPa
Current Rain
0.01"
Previous

1 hour ago

KHFF 231940Z AUTO 04005KT 2SM -SHRA BR OVC004 06/06 A3018 RMK AO2 SLP238
Observed
Feb-23 @ 19:40 UTC
Wind
  • 040° at 5 KTS
Visibility
2 SM
Flight Rules
LIFR
Conditions
Light Rain, Mist
Cloud Levels
  • Overcast at 400' AGL
Temperature
C / 43°F
Dewpoint
C / 43°F
Humidity
100%
Altimeter
30.18" Hg
Pressure
1023.8 hPa